VIR76 KMCO-EGCC
Flight info
| Callsign | VIR76 |
|---|---|
| Flight time | N/A |
| Altitude | 33000 |
| Route | MZULO3 ETECK M202 UKOKA/M085F330 M202 KINER DCT DRYED M201 CARAC/N0502F330 DCT JOOPY/M085F330 DCT 49N050W 51N040W 53N030W 54N020W DCT DOGAL DCT BEXET/N0489F330 DCT BOFUM Q37 MALUD MALUD1M |
| Aircraft | B742/H-SDFHIRWXY/L |
Departure
| Time | 2026-05-04 08:02 |
|---|---|
| Airport | Orlando International Airport (KMCO) |
Arrival
| Time | N/A |
|---|---|
| Airport | Manchester Airport (EGCC) |
| Time | Latitude | Longitude | Altitude | Speed | Heading |
|---|---|---|---|---|---|
| 2026-05-04 07:26 | 28.42664 | -81.30359 | 106 ft | 0 kts | 38° |
| 2026-05-04 07:45 | 28.42662 | -81.30360 | 106 ft | 4 kts | 40° |
| 2026-05-04 07:45 | 28.42656 | -81.30366 | 106 ft | 0 kts | 41° |
| 2026-05-04 07:54 | 28.42476 | -81.30175 | 106 ft | 6 kts | 115° |
| 2026-05-04 07:55 | 28.42453 | -81.30148 | 106 ft | 4 kts | 158° |
| 2026-05-04 07:55 | 28.42413 | -81.30138 | 106 ft | 7 kts | 173° |
| 2026-05-04 07:55 | 28.42366 | -81.30112 | 106 ft | 9 kts | 110° |
| 2026-05-04 07:55 | 28.42362 | -81.30027 | 106 ft | 11 kts | 90° |
| 2026-05-04 07:56 | 28.42362 | -81.29938 | 106 ft | 11 kts | 90° |
| 2026-05-04 07:56 | 28.42362 | -81.29852 | 106 ft | 10 kts | 90° |
| 2026-05-04 07:56 | 28.42335 | -81.29797 | 106 ft | 9 kts | 164° |
| 2026-05-04 07:56 | 28.42270 | -81.29795 | 106 ft | 10 kts | 180° |
| 2026-05-04 07:57 | 28.42186 | -81.29793 | 106 ft | 14 kts | 178° |
| 2026-05-04 07:57 | 28.42073 | -81.29791 | 106 ft | 18 kts | 179° |
| 2026-05-04 07:57 | 28.41934 | -81.29788 | 106 ft | 19 kts | 179° |
| 2026-05-04 07:57 | 28.41802 | -81.29785 | 106 ft | 17 kts | 179° |
| 2026-05-04 07:58 | 28.41686 | -81.29782 | 106 ft | 15 kts | 179° |
| 2026-05-04 07:58 | 28.41588 | -81.29782 | 106 ft | 12 kts | 179° |
| 2026-05-04 07:58 | 28.41505 | -81.29781 | 106 ft | 10 kts | 180° |
| 2026-05-04 07:58 | 28.41424 | -81.29783 | 106 ft | 13 kts | 181° |
| 2026-05-04 07:59 | 28.41320 | -81.29784 | 106 ft | 16 kts | 180° |
| 2026-05-04 07:59 | 28.41201 | -81.29782 | 106 ft | 17 kts | 179° |
| 2026-05-04 07:59 | 28.41076 | -81.29778 | 106 ft | 18 kts | 178° |
| 2026-05-04 07:59 | 28.40943 | -81.29772 | 106 ft | 19 kts | 178° |
| 2026-05-04 08:00 | 28.40832 | -81.29752 | 106 ft | 12 kts | 128° |
| 2026-05-04 08:00 | 28.40817 | -81.29665 | 106 ft | 10 kts | 92° |
| 2026-05-04 08:00 | 28.40821 | -81.29592 | 106 ft | 8 kts | 77° |
| 2026-05-04 08:02 | 28.43561 | -81.29606 | 164 ft | 181 kts | 358° |
| 2026-05-04 08:02 | 28.44812 | -81.29670 | 636 ft | 180 kts | 6° |
| 2026-05-04 08:02 | 28.45976 | -81.29223 | 1051 ft | 183 kts | 45° |
| 2026-05-04 08:03 | 28.46666 | -81.27967 | 1338 ft | 196 kts | 65° |
| 2026-05-04 08:03 | 28.47352 | -81.26617 | 1606 ft | 198 kts | 56° |
| 2026-05-04 08:03 | 28.48134 | -81.25317 | 1880 ft | 202 kts | 55° |
| 2026-05-04 08:03 | 28.48958 | -81.23990 | 2112 ft | 208 kts | 55° |
| 2026-05-04 08:04 | 28.49816 | -81.22627 | 2303 ft | 216 kts | 55° |
| 2026-05-04 08:04 | 28.50460 | -81.21062 | 2478 ft | 225 kts | 78° |
| 2026-05-04 08:04 | 28.50765 | -81.19250 | 2658 ft | 238 kts | 78° |
| 2026-05-04 08:04 | 28.51086 | -81.17351 | 2862 ft | 251 kts | 79° |
| 2026-05-04 08:05 | 28.51165 | -81.15382 | 3370 ft | 250 kts | 90° |
| 2026-05-04 08:05 | 28.51081 | -81.13389 | 3779 ft | 255 kts | 91° |
| 2026-05-04 08:05 | 28.50996 | -81.11357 | 4175 ft | 259 kts | 91° |
| 2026-05-04 08:05 | 28.50914 | -81.09300 | 4640 ft | 261 kts | 91° |
| 2026-05-04 08:06 | 28.50837 | -81.07221 | 5076 ft | 264 kts | 91° |
| 2026-05-04 08:06 | 28.50761 | -81.05135 | 5430 ft | 270 kts | 92° |
| 2026-05-04 08:06 | 28.50616 | -81.02982 | 5789 ft | 275 kts | 98° |
| 2026-05-04 08:06 | 28.50313 | -81.00827 | 6205 ft | 278 kts | 100° |
| 2026-05-04 08:08 | 28.48002 | -80.84864 | 8926 ft | 304 kts | 100° |
| 2026-05-04 08:08 | 28.47719 | -80.82449 | 9255 ft | 309 kts | 90° |
| 2026-05-04 08:10 | 28.50063 | -80.61156 | 10879 ft | 392 kts | 82° |
| 2026-05-04 08:11 | 28.50413 | -80.58005 | 11119 ft | 403 kts | 82° |
| 2026-05-04 08:11 | 28.51111 | -80.51689 | 12276 ft | 405 kts | 82° |
| 2026-05-04 08:11 | 28.51467 | -80.48457 | 12658 ft | 411 kts | 83° |
| 2026-05-04 08:12 | 28.51821 | -80.45232 | 13238 ft | 413 kts | 82° |
| 2026-05-04 08:12 | 28.52183 | -80.41936 | 13634 ft | 419 kts | 83° |
| 2026-05-04 08:12 | 28.52539 | -80.38673 | 14163 ft | 421 kts | 82° |
| 2026-05-04 08:12 | 28.52904 | -80.35337 | 14467 ft | 428 kts | 82° |
| 2026-05-04 08:13 | 28.53267 | -80.31938 | 14892 ft | 432 kts | 83° |
| 2026-05-04 08:13 | 28.53797 | -80.28621 | 15216 ft | 436 kts | 73° |
| 2026-05-04 08:13 | 28.54840 | -80.25370 | 15709 ft | 435 kts | 66° |
| 2026-05-04 08:13 | 28.56070 | -80.22180 | 15963 ft | 443 kts | 64° |
| 2026-05-04 08:14 | 28.57348 | -80.18980 | 16388 ft | 445 kts | 64° |
| 2026-05-04 08:14 | 28.58620 | -80.15748 | 16756 ft | 449 kts | 64° |
| 2026-05-04 08:14 | 28.59874 | -80.12502 | 17071 ft | 454 kts | 65° |
| 2026-05-04 08:16 | 28.68827 | -79.88823 | 19738 ft | 476 kts | 66° |
| 2026-05-04 08:16 | 28.70144 | -79.85324 | 20096 ft | 480 kts | 65° |
| 2026-05-04 08:16 | 28.71459 | -79.81835 | 20455 ft | 482 kts | 66° |
| 2026-05-04 08:17 | 28.72775 | -79.78336 | 20861 ft | 484 kts | 66° |
| 2026-05-04 08:17 | 28.74118 | -79.74760 | 21148 ft | 489 kts | 66° |
| 2026-05-04 08:17 | 28.75442 | -79.71235 | 21470 ft | 492 kts | 66° |
| 2026-05-04 08:17 | 28.76797 | -79.67622 | 21797 ft | 496 kts | 66° |
| 2026-05-04 08:19 | 28.88935 | -79.43559 | 24030 ft | 512 kts | 51° |
| 2026-05-04 08:19 | 28.91041 | -79.40292 | 24365 ft | 514 kts | 52° |
| 2026-05-04 08:20 | 28.93156 | -79.36970 | 24700 ft | 516 kts | 52° |
| 2026-05-04 08:20 | 28.95276 | -79.33611 | 24962 ft | 520 kts | 53° |
| 2026-05-04 08:20 | 28.97370 | -79.30247 | 25209 ft | 523 kts | 53° |
| 2026-05-04 08:20 | 28.99481 | -79.26839 | 25495 ft | 525 kts | 53° |
| 2026-05-04 08:21 | 29.01590 | -79.23438 | 25763 ft | 527 kts | 53° |
| 2026-05-04 08:21 | 29.03722 | -79.20013 | 26055 ft | 528 kts | 52° |
| 2026-05-04 08:21 | 29.05843 | -79.16610 | 26292 ft | 531 kts | 52° |
| 2026-05-04 08:21 | 29.07991 | -79.13169 | 26562 ft | 533 kts | 52° |
| 2026-05-04 08:22 | 29.10162 | -79.09690 | 26823 ft | 535 kts | 53° |
| 2026-05-04 08:22 | 29.12308 | -79.06245 | 27057 ft | 536 kts | 53° |
| 2026-05-04 08:24 | 29.27654 | -78.81537 | 28536 ft | 549 kts | 53° |
| 2026-05-04 08:24 | 29.29854 | -78.77986 | 28743 ft | 551 kts | 53° |
| 2026-05-04 08:24 | 29.32069 | -78.74410 | 28886 ft | 554 kts | 53° |
| 2026-05-04 08:24 | 29.34301 | -78.70800 | 29100 ft | 555 kts | 53° |
| 2026-05-04 08:25 | 29.36516 | -78.67212 | 29428 ft | 553 kts | 53° |
| 2026-05-04 08:25 | 29.38766 | -78.63673 | 29778 ft | 550 kts | 51° |
| 2026-05-04 08:25 | 29.41083 | -78.60138 | 30111 ft | 547 kts | 51° |
| 2026-05-04 08:25 | 29.43358 | -78.56702 | 30430 ft | 545 kts | 51° |
| 2026-05-04 08:26 | 29.45622 | -78.53280 | 30759 ft | 542 kts | 51° |
| 2026-05-04 08:27 | 29.65418 | -78.35365 | 32904 ft | 506 kts | 29° |
| 2026-05-04 08:28 | 29.68303 | -78.33097 | 33035 ft | 507 kts | 30° |
| 2026-05-04 08:28 | 29.71206 | -78.30782 | 33066 ft | 509 kts | 30° |
| 2026-05-04 08:28 | 29.77097 | -78.26072 | 33063 ft | 516 kts | 30° |
| 2026-05-04 08:29 | 29.83028 | -78.21348 | 33063 ft | 523 kts | 30° |
| 2026-05-04 08:31 | 30.07644 | -78.01708 | 33069 ft | 554 kts | 31° |
| 2026-05-04 08:33 | 30.33211 | -77.81166 | 33079 ft | 558 kts | 31° |
| 2026-05-04 08:35 | 30.47443 | -77.55003 | 33084 ft | 562 kts | 74° |
| 2026-05-04 08:35 | 30.48725 | -77.50781 | 33085 ft | 562 kts | 73° |
| 2026-05-04 08:35 | 30.51406 | -77.42245 | 33087 ft | 562 kts | 73° |
| 2026-05-04 08:37 | 30.60862 | -77.12496 | 33118 ft | 562 kts | 73° |
| 2026-05-04 08:38 | 30.63561 | -77.04023 | 33113 ft | 562 kts | 72° |
| 2026-05-04 08:38 | 30.65256 | -76.99930 | 33094 ft | 567 kts | 60° |
| 2026-05-04 08:38 | 30.67497 | -76.96182 | 33115 ft | 570 kts | 52° |
| 2026-05-04 08:40 | 30.88646 | -76.68392 | 33109 ft | 573 kts | 49° |
| 2026-05-04 08:41 | 30.93869 | -76.61401 | 33126 ft | 576 kts | 49° |
| 2026-05-04 08:41 | 30.99124 | -76.54366 | 33109 ft | 576 kts | 49° |
| 2026-05-04 08:42 | 31.04394 | -76.47302 | 33116 ft | 577 kts | 50° |
| 2026-05-04 08:42 | 31.09656 | -76.40235 | 33108 ft | 578 kts | 49° |
| 2026-05-04 08:43 | 31.14895 | -76.33179 | 33104 ft | 576 kts | 51° |
| 2026-05-04 08:43 | 31.20114 | -76.26064 | 33134 ft | 578 kts | 51° |
| 2026-05-04 08:44 | 31.25385 | -76.18901 | 33103 ft | 580 kts | 50° |
| 2026-05-04 08:46 | 31.46457 | -75.90313 | 33137 ft | 580 kts | 50° |
| 2026-05-04 08:46 | 31.51687 | -75.83184 | 33128 ft | 580 kts | 51° |
| 2026-05-04 08:47 | 31.56959 | -75.75983 | 33117 ft | 580 kts | 50° |
| 2026-05-04 08:47 | 31.62195 | -75.68819 | 33124 ft | 580 kts | 50° |
| 2026-05-04 08:48 | 31.67451 | -75.61615 | 33129 ft | 580 kts | 50° |
| 2026-05-04 08:48 | 31.72705 | -75.54399 | 33127 ft | 581 kts | 50° |
| 2026-05-04 08:49 | 31.77940 | -75.47196 | 33123 ft | 581 kts | 50° |
| 2026-05-04 08:50 | 31.96264 | -75.21755 | 33122 ft | 585 kts | 51° |
| 2026-05-04 08:51 | 32.01559 | -75.14387 | 33127 ft | 589 kts | 51° |
| 2026-05-04 08:51 | 32.06851 | -75.07030 | 33121 ft | 589 kts | 51° |
| 2026-05-04 08:52 | 32.12145 | -74.99654 | 33120 ft | 588 kts | 50° |
| 2026-05-04 08:52 | 32.17403 | -74.92307 | 33128 ft | 588 kts | 51° |
| 2026-05-04 08:54 | 32.38459 | -74.62763 | 33139 ft | 588 kts | 51° |
| 2026-05-04 08:55 | 32.43699 | -74.55375 | 33141 ft | 585 kts | 50° |
| 2026-05-04 08:55 | 32.48924 | -74.47992 | 33128 ft | 585 kts | 50° |
| 2026-05-04 09:01 | 33.03510 | -73.69843 | 33108 ft | 590 kts | 50° |
| 2026-05-04 09:01 | 33.08740 | -73.62280 | 33111 ft | 588 kts | 50° |
| 2026-05-04 09:02 | 33.13916 | -73.54778 | 33115 ft | 588 kts | 50° |
| 2026-05-04 09:02 | 33.19120 | -73.47221 | 33129 ft | 592 kts | 51° |
| 2026-05-04 09:03 | 33.24357 | -73.39600 | 33123 ft | 594 kts | 50° |
| 2026-05-04 09:03 | 33.29615 | -73.31919 | 33126 ft | 593 kts | 51° |
| 2026-05-04 09:04 | 33.34793 | -73.24262 | 33129 ft | 594 kts | 51° |
| 2026-05-04 09:04 | 33.39988 | -73.16615 | 33146 ft | 593 kts | 50° |
| 2026-05-04 09:05 | 33.45164 | -73.09018 | 33134 ft | 591 kts | 50° |